Time,TemperatureF,DewpointF,PressureIn,WindDirection,WindDirectionDegrees,WindSpeedMPH,WindSpeedGustMPH,Humidity,HourlyPrecipIn,Conditions,Clouds,dailyrainin,SoftwareType,DateUTC
2013-01-21 00:00:00,32.7,13.2,30.05,NW,311,4.0,9.0,44,0.00,,,0.00,Wunderground v.1.13,2013-01-21 05:00:00,
2013-01-21 00:05:00,32.7,13.2,30.05,WNW,294,3.0,3.0,44,0.00,,,0.00,Wunderground v.1.13,2013-01-21 05:05:00,
2013-01-21 00:10:00,32.4,12.9,30.06,NW,317,3.0,9.0,44,0.00,,,0.00,Wunderground v.1.13,2013-01-21 05:10:00,
2013-01-21 00:20:00,32.2,12.7,30.06,WNW,302,4.0,10.0,44,0.00,,,0.00,Wunderground v.1.13,2013-01-21 05:20:00,
2013-01-21 00:30:00,32.1,12.1,30.06,NW,313,5.0,5.0,43,0.00,,,0.00,Wunderground v.1.13,2013-01-21 05:30:00,
2013-01-21 00:40:00,31.9,11.4,30.06,NW,311,5.0,5.0,42,0.00,,,0.00,Wunderground v.1.13,2013-01-21 05:40:00,
2013-01-21 00:50:00,31.6,12.2,30.07,NW,304,3.0,13.0,44,0.00,,,0.00,Wunderground v.1.13,2013-01-21 05:50:00,
2013-01-21 00:55:00,31.5,12.1,30.07,NW,312,3.0,13.0,44,0.00,,,0.00,Wunderground v.1.13,2013-01-21 05:55:00,
2013-01-21 01:00:00,31.5,12.1,30.07,WNW,300,3.0,3.0,44,0.00,,,0.00,Wunderground v.1.13,2013-01-21 06:00:00,
2013-01-21 01:10:00,31.0,12.6,30.07,WNW,300,1.0,6.0,46,0.00,,,0.00,Wunderground v.1.13,2013-01-21 06:10:00,
2013-01-21 01:20:00,30.7,12.8,30.07,NW,311,2.0,5.0,47,0.00,,,0.00,Wunderground v.1.13,2013-01-21 06:20:00,
2013-01-21 01:25:00,30.7,12.8,30.07,NW,308,2.0,2.0,47,0.00,,,0.00,Wunderground v.1.13,2013-01-21 06:25:00,
2013-01-21 01:35:00,30.6,12.7,30.07,WNW,302,2.0,2.0,47,0.00,,,0.00,Wunderground v.1.13,2013-01-21 06:35:00,
2013-01-21 01:40:00,30.4,13.0,30.08,WNW,302,1.0,6.0,48,0.00,,,0.00,Wunderground v.1.13,2013-01-21 06:40:00,
2013-01-21 01:50:00,30.3,12.5,30.08,NNW,329,1.0,6.0,47,0.00,,,0.00,Wunderground v.1.13,2013-01-21 06:50:00,
2013-01-21 01:55:00,30.3,12.5,30.09,NW,305,2.0,2.0,47,0.00,,,0.00,Wunderground v.1.13,2013-01-21 06:55:00,
2013-01-21 02:05:00,30.0,12.7,30.09,NW,305,1.0,1.0,48,0.00,,,0.00,Wunderground v.1.13,2013-01-21 07:05:00,
2013-01-21 02:15:00,29.8,12.5,30.10,WNW,303,1.0,4.0,48,0.00,,,0.00,Wunderground v.1.13,2013-01-21 07:15:00,
2013-01-21 02:25:00,29.7,11.9,30.09,WNW,303,1.0,4.0,47,0.00,,,0.00,Wunderground v.1.13,2013-01-21 07:25:00,
2013-01-21 02:30:00,29.7,11.9,30.09,WNW,303,2.0,2.0,47,0.00,,,0.00,Wunderground v.1.13,2013-01-21 07:30:00,
2013-01-21 02:40:00,29.5,11.2,30.09,NNW,329,2.0,2.0,46,0.00,,,0.00,Wunderground v.1.13,2013-01-21 07:40:00,
2013-01-21 02:50:00,29.5,10.7,30.09,NNW,329,3.0,10.0,45,0.00,,,0.00,Wunderground v.1.13,2013-01-21 07:50:00,
2013-01-21 03:00:00,29.4,10.6,30.10,NW,310,3.0,3.0,45,0.00,,,0.00,Wunderground v.1.13,2013-01-21 08:00:00,
2013-01-21 03:05:00,29.4,11.1,30.10,WNW,296,2.0,7.0,46,0.00,,,0.00,Wunderground v.1.13,2013-01-21 08:05:00,
2013-01-21 03:15:00,29.1,10.9,30.10,WNW,295,3.0,7.0,46,0.00,,,0.00,Wunderground v.1.13,2013-01-21 08:15:00,
2013-01-21 03:20:00,29.0,9.8,30.10,West,272,4.0,8.0,44,0.00,,,0.00,Wunderground v.1.13,2013-01-21 08:20:00,
2013-01-21 03:30:00,28.8,9.6,30.10,WNW,292,3.0,8.0,44,0.00,,,0.00,Wunderground v.1.13,2013-01-21 08:30:00,
2013-01-21 03:35:00,28.8,9.1,30.10,NW,321,3.0,10.0,43,0.00,,,0.00,Wunderground v.1.13,2013-01-21 08:35:00,
2013-01-21 03:45:00,28.8,9.1,30.11,NW,307,3.0,3.0,43,0.00,,,0.00,Wunderground v.1.13,2013-01-21 08:45:00,
2013-01-21 03:55:00,28.7,9.0,30.10,NW,309,2.0,9.0,43,0.00,,,0.00,Wunderground v.1.13,2013-01-21 08:55:00,
2013-01-21 04:00:00,28.7,9.0,30.10,NW,309,2.0,9.0,43,0.00,,,0.00,Wunderground v.1.13,2013-01-21 09:00:00,
2013-01-21 04:05:00,28.5,8.8,30.10,NW,314,2.0,6.0,43,0.00,,,0.00,Wunderground v.1.13,2013-01-21 09:05:00,
2013-01-21 04:15:00,28.5,8.8,30.09,NW,313,2.0,6.0,43,0.00,,,0.00,Wunderground v.1.13,2013-01-21 09:15:00,
2013-01-21 04:25:00,28.4,8.7,30.09,NW,306,3.0,3.0,43,0.00,,,0.00,Wunderground v.1.13,2013-01-21 09:25:00,
2013-01-21 04:30:00,28.4,8.7,30.09,WNW,298,2.0,2.0,43,0.00,,,0.00,Wunderground v.1.13,2013-01-21 09:30:00,
2013-01-21 04:40:00,28.4,8.7,30.09,NNW,330,2.0,5.0,43,0.00,,,0.00,Wunderground v.1.13,2013-01-21 09:40:00,
2013-01-21 04:50:00,28.4,8.7,30.09,WNW,300,3.0,3.0,43,0.00,,,0.00,Wunderground v.1.13,2013-01-21 09:50:00,
2013-01-21 04:55:00,28.2,8.0,30.09,WNW,303,2.0,2.0,42,0.00,,,0.00,Wunderground v.1.13,2013-01-21 09:55:00,
2013-01-21 05:00:00,28.2,8.5,30.10,WNW,303,2.0,2.0,43,0.00,,,0.00,Wunderground v.1.13,2013-01-21 10:00:00,
2013-01-21 05:10:00,28.2,8.0,30.10,WNW,303,1.0,6.0,42,0.00,,,0.00,Wunderground v.1.13,2013-01-21 10:10:00,
2013-01-21 05:15:00,28.2,8.0,30.10,NW,306,1.0,1.0,42,0.00,,,0.00,Wunderground v.1.13,2013-01-21 10:15:00,
2013-01-21 05:25:00,28.2,8.5,30.10,NW,316,1.0,1.0,43,0.00,,,0.00,Wunderground v.1.13,2013-01-21 10:25:00,
2013-01-21 05:30:00,28.1,8.4,30.09,NW,316,1.0,5.0,43,0.00,,,0.00,Wunderground v.1.13,2013-01-21 10:30:00,
2013-01-21 05:40:00,27.9,8.3,30.10,NW,316,0.0,4.0,43,0.00,,,0.00,Wunderground v.1.13,2013-01-21 10:40:00,
2013-01-21 05:50:00,27.9,8.3,30.10,NW,316,0.0,3.0,43,0.00,,,0.00,Wunderground v.1.13,2013-01-21 10:50:00,
2013-01-21 05:55:00,27.8,8.7,30.10,NW,316,0.0,3.0,44,0.00,,,0.00,Wunderground v.1.13,2013-01-21 10:55:00,
2013-01-21 06:05:00,27.6,8.5,30.10,NW,316,0.0,1.0,44,0.00,,,0.00,Wunderground v.1.13,2013-01-21 11:05:00,
2013-01-21 06:10:00,27.6,9.0,30.10,NW,316,0.0,1.0,45,0.00,,,0.00,Wunderground v.1.13,2013-01-21 11:10:00,
2013-01-21 06:20:00,27.6,9.0,30.10,NW,316,0.0,2.0,45,0.00,,,0.00,Wunderground v.1.13,2013-01-21 11:20:00,
2013-01-21 06:25:00,27.6,9.5,30.10,NW,316,0.0,2.0,46,0.00,,,0.00,Wunderground v.1.13,2013-01-21 11:25:00,
2013-01-21 06:35:00,27.5,8.9,30.10,NW,304,1.0,3.0,45,0.00,,,0.00,Wunderground v.1.13,2013-01-21 11:35:00,
2013-01-21 06:40:00,27.5,9.4,30.10,NW,306,1.0,1.0,46,0.00,,,0.00,Wunderground v.1.13,2013-01-21 11:40:00,
2013-01-21 06:50:00,27.3,9.2,30.10,NW,317,1.0,4.0,46,0.00,,,0.00,Wunderground v.1.13,2013-01-21 11:50:00,
2013-01-21 07:00:00,27.3,9.7,30.10,NW,317,2.0,4.0,47,0.00,,,0.00,Wunderground v.1.13,2013-01-21 12:00:00,
2013-01-21 07:05:00,27.2,9.6,30.10,NW,317,2.0,2.0,47,0.00,,,0.00,Wunderground v.1.13,2013-01-21 12:05:00,
2013-01-21 07:15:00,27.2,10.1,30.11,NW,317,1.0,6.0,48,0.00,,,0.00,Wunderground v.1.13,2013-01-21 12:15:00,
2013-01-21 07:20:00,27.2,9.6,30.11,NW,317,1.0,4.0,47,0.00,,,0.00,Wunderground v.1.13,2013-01-21 12:20:00,
2013-01-21 07:30:00,27.2,10.1,30.11,NW,317,1.0,4.0,48,0.00,,,0.00,Wunderground v.1.13,2013-01-21 12:30:00,
2013-01-21 07:35:00,27.2,10.1,30.11,NW,317,1.0,4.0,48,0.00,,,0.00,Wunderground v.1.13,2013-01-21 12:35:00,
2013-01-21 07:40:00,27.2,10.5,30.10,NW,317,1.0,4.0,49,0.00,,,0.00,Wunderground v.1.13,2013-01-21 12:40:00,
2013-01-21 07:50:00,27.2,9.1,30.11,NW,317,2.0,2.0,46,0.00,,,0.00,Wunderground v.1.13,2013-01-21 12:50:00,
2013-01-21 08:00:00,27.2,9.1,30.10,NW,317,1.0,5.0,46,0.00,,,0.00,Wunderground v.1.13,2013-01-21 13:00:00,
2013-01-21 08:05:00,27.3,9.2,30.11,NW,310,2.0,2.0,46,0.00,,,0.00,Wunderground v.1.13,2013-01-21 13:05:00,
2013-01-21 08:10:00,27.3,9.2,30.11,WNW,298,2.0,2.0,46,0.00,,,0.00,Wunderground v.1.13,2013-01-21 13:10:00,
2013-01-21 08:20:00,27.5,9.4,30.11,NW,312,2.0,6.0,46,0.00,,,0.00,Wunderground v.1.13,2013-01-21 13:20:00,
2013-01-21 08:30:00,27.6,8.5,30.11,NW,308,2.0,2.0,44,0.00,,,0.00,Wunderground v.1.13,2013-01-21 13:30:00,
2013-01-21 08:35:00,27.6,8.0,30.11,NW,309,2.0,5.0,43,0.00,,,0.00,Wunderground v.1.13,2013-01-21 13:35:00,
2013-01-21 08:45:00,27.8,7.6,30.11,NW,309,2.0,5.0,42,0.00,,,0.00,Wunderground v.1.13,2013-01-21 13:45:00,
2013-01-21 08:55:00,27.9,7.7,30.11,NW,313,2.0,2.0,42,0.00,,,0.00,Wunderground v.1.13,2013-01-21 13:55:00,
2013-01-21 09:00:00,28.2,8.0,30.11,WNW,294,2.0,5.0,42,0.00,,,0.00,Wunderground v.1.13,2013-01-21 14:00:00,
2013-01-21 09:10:00,28.5,8.3,30.11,WNW,294,2.0,2.0,42,0.00,,,0.00,Wunderground v.1.13,2013-01-21 14:10:00,
2013-01-21 09:15:00,28.7,8.5,30.11,WNW,294,1.0,6.0,42,0.00,,,0.00,Wunderground v.1.13,2013-01-21 14:15:00,
2013-01-21 09:25:00,28.8,8.0,30.11,WNW,294,0.0,4.0,41,0.00,,,0.00,Wunderground v.1.13,2013-01-21 14:25:00,
2013-01-21 09:35:00,29.3,8.5,30.11,WNW,290,0.0,3.0,41,0.00,,,0.00,Wunderground v.1.13,2013-01-21 14:35:00,
2013-01-21 09:40:00,29.4,8.0,30.12,WNW,290,0.0,3.0,40,0.00,,,0.00,Wunderground v.1.13,2013-01-21 14:40:00,
2013-01-21 09:50:00,29.8,10.0,30.12,WNW,290,1.0,1.0,43,0.00,,,0.00,Wunderground v.1.13,2013-01-21 14:50:00,
2013-01-21 10:00:00,30.4,8.9,30.11,SW,229,1.0,1.0,40,0.00,,,0.00,Wunderground v.1.13,2013-01-21 15:00:00,
2013-01-21 10:10:00,29.8,8.9,30.11,WNW,296,2.0,3.0,41,0.00,,,0.00,Wunderground v.1.13,2013-01-21 15:10:00,
2013-01-21 10:15:00,29.8,8.4,30.11,West,269,3.0,3.0,40,0.00,,,0.00,Wunderground v.1.13,2013-01-21 15:15:00,
2013-01-21 10:25:00,30.1,9.2,30.10,West,275,1.0,6.0,41,0.00,,,0.00,Wunderground v.1.13,2013-01-21 15:25:00,
2013-01-21 10:30:00,30.1,8.1,30.10,West,276,1.0,1.0,39,0.00,,,0.00,Wunderground v.1.13,2013-01-21 15:30:00,
2013-01-21 10:40:00,30.6,9.1,30.09,West,275,0.0,5.0,40,0.00,,,0.00,Wunderground v.1.13,2013-01-21 15:40:00,
2013-01-21 10:45:00,31.0,9.5,30.09,SW,221,0.0,5.0,40,0.00,,,0.00,Wunderground v.1.13,2013-01-21 15:45:00,
2013-01-21 10:55:00,31.6,9.4,30.09,SW,221,0.0,4.0,39,0.00,,,0.00,Wunderground v.1.13,2013-01-21 15:55:00,
2013-01-21 11:00:00,32.1,9.3,30.08,SSW,213,1.0,1.0,38,0.00,,,0.00,Wunderground v.1.13,2013-01-21 16:00:00,
2013-01-21 11:05:00,32.2,10.0,30.08,SSW,213,1.0,1.0,39,0.00,,,0.00,Wunderground v.1.13,2013-01-21 16:05:00,
2013-01-21 11:15:00,32.2,8.8,30.07,SW,223,1.0,4.0,37,0.00,,,0.00,Wunderground v.1.13,2013-01-21 16:15:00,
2013-01-21 11:25:00,32.4,10.7,30.07,SW,221,1.0,4.0,40,0.00,,,0.00,Wunderground v.1.13,2013-01-21 16:25:00,
2013-01-21 11:30:00,32.2,10.0,30.07,SSW,202,1.0,4.0,39,0.00,,,0.00,Wunderground v.1.13,2013-01-21 16:30:00,
2013-01-21 11:40:00,32.5,10.3,30.06,SSE,157,2.0,5.0,39,0.00,,,0.00,Wunderground v.1.13,2013-01-21 16:40:00,
2013-01-21 11:45:00,32.5,10.3,30.05,South,186,1.0,5.0,39,0.00,,,0.00,Wunderground v.1.13,2013-01-21 16:45:00,
2013-01-21 11:55:00,32.5,9.7,30.04,SSW,210,2.0,6.0,38,0.00,,,0.00,Wunderground v.1.13,2013-01-21 16:55:00,
2013-01-21 12:00:00,32.5,9.1,30.04,SW,226,2.0,6.0,37,0.00,,,0.00,Wunderground v.1.13,2013-01-21 17:00:00,
2013-01-21 12:10:00,32.8,10.5,30.03,SW,226,0.0,8.0,39,0.00,,,0.00,Wunderground v.1.13,2013-01-21 17:10:00,
2013-01-21 12:15:00,32.9,10.0,30.02,WSW,252,1.0,8.0,38,0.00,,,0.00,Wunderground v.1.13,2013-01-21 17:15:00,
2013-01-21 12:25:00,33.5,10.6,30.01,South,190,1.0,1.0,38,0.00,,,0.00,Wunderground v.1.13,2013-01-21 17:25:00,
2013-01-21 12:30:00,34.0,10.4,30.01,WNW,286,1.0,4.0,37,0.00,,,0.00,Wunderground v.1.13,2013-01-21 17:30:00,
2013-01-21 12:35:00,33.8,9.6,30.01,WSW,251,1.0,6.0,36,0.00,,,0.00,Wunderground v.1.13,2013-01-21 17:35:00,
2013-01-21 12:45:00,34.1,10.5,30.00,SW,216,1.0,6.0,37,0.00,,,0.00,Wunderground v.1.13,2013-01-21 17:45:00,
2013-01-21 12:55:00,33.7,11.3,30.00,SSW,207,2.0,5.0,39,0.00,,,0.00,Wunderground v.1.13,2013-01-21 17:55:00,
2013-01-21 13:05:00,33.4,11.1,30.00,South,178,2.0,2.0,39,0.00,,,0.00,Wunderground v.1.13,2013-01-21 18:05:00,
2013-01-21 13:10:00,33.5,10.6,30.00,SSW,211,2.0,10.0,38,0.00,,,0.00,Wunderground v.1.13,2013-01-21 18:10:00,
2013-01-21 13:15:00,33.7,11.3,30.00,SE,138,2.0,10.0,39,0.00,,,0.00,Wunderground v.1.13,2013-01-21 18:15:00,
2013-01-21 13:25:00,33.7,11.3,29.99,South,184,2.0,2.0,39,0.00,,,0.00,Wunderground v.1.13,2013-01-21 18:25:00,
2013-01-21 13:30:00,33.8,11.4,29.99,South,184,1.0,7.0,39,0.00,,,0.00,Wunderground v.1.13,2013-01-21 18:30:00,
2013-01-21 13:40:00,33.7,11.3,29.99,SW,229,2.0,5.0,39,0.00,,,0.00,Wunderground v.1.13,2013-01-21 18:40:00,
2013-01-21 13:45:00,33.5,11.2,29.98,SW,229,2.0,2.0,39,0.00,,,0.00,Wunderground v.1.13,2013-01-21 18:45:00,
2013-01-21 13:50:00,33.5,11.7,29.98,SW,223,1.0,1.0,40,0.00,,,0.00,Wunderground v.1.13,2013-01-21 18:50:00,
2013-01-21 14:00:00,33.8,12.6,29.98,SW,218,0.0,7.0,41,0.00,,,0.00,Wunderground v.1.13,2013-01-21 19:00:00,
2013-01-21 14:05:00,33.5,13.9,29.98,West,260,1.0,5.0,44,0.00,,,0.00,Wunderground v.1.13,2013-01-21 19:05:00,
2013-01-21 14:15:00,32.9,13.9,29.97,WSW,255,2.0,2.0,45,0.00,,,0.00,Wunderground v.1.13,2013-01-21 19:15:00,
2013-01-21 14:25:00,32.7,17.0,29.97,West,265,2.0,6.0,52,0.00,,,0.00,Wunderground v.1.13,2013-01-21 19:25:00,
2013-01-21 14:30:00,32.4,17.2,29.97,SSW,211,2.0,6.0,53,0.00,,,0.00,Wunderground v.1.13,2013-01-21 19:30:00,
2013-01-21 14:40:00,31.9,20.3,29.96,West,263,2.0,7.0,62,0.00,,,0.00,Wunderground v.1.13,2013-01-21 19:40:00,
2013-01-21 14:45:00,31.8,20.6,29.96,WSW,246,1.0,1.0,63,0.00,,,0.00,Wunderground v.1.13,2013-01-21 19:45:00,
2013-01-21 14:55:00,31.3,20.9,29.96,WNW,286,1.0,7.0,65,0.00,,,0.00,Wunderground v.1.13,2013-01-21 19:55:00,
2013-01-21 15:05:00,31.2,20.8,29.95,WNW,285,1.0,1.0,65,0.00,,,0.00,Wunderground v.1.13,2013-01-21 20:05:00,
2013-01-21 15:15:00,31.5,21.1,29.94,WNW,285,0.0,4.0,65,0.00,,,0.00,Wunderground v.1.13,2013-01-21 20:15:00,
2013-01-21 15:20:00,31.8,21.4,29.94,WNW,285,0.0,2.0,65,0.00,,,0.00,Wunderground v.1.13,2013-01-21 20:20:00,
2013-01-21 15:30:00,32.1,20.2,29.93,South,172,1.0,1.0,61,0.00,,,0.00,Wunderground v.1.13,2013-01-21 20:30:00,
2013-01-21 15:35:00,31.9,19.2,29.93,South,172,0.0,3.0,59,0.00,,,0.00,Wunderground v.1.13,2013-01-21 20:35:00,
2013-01-21 15:45:00,32.1,19.0,29.92,South,172,0.0,3.0,58,0.00,,,0.00,Wunderground v.1.13,2013-01-21 20:45:00,
2013-01-21 15:50:00,32.2,18.2,29.91,South,172,0.0,2.0,56,0.00,,,0.00,Wunderground v.1.13,2013-01-21 20:50:00,
2013-01-21 16:00:00,32.5,17.7,29.91,South,172,1.0,1.0,54,0.00,,,0.00,Wunderground v.1.13,2013-01-21 21:00:00,
2013-01-21 16:05:00,32.8,17.1,29.91,SSW,213,1.0,4.0,52,0.00,,,0.00,Wunderground v.1.13,2013-01-21 21:05:00,
2013-01-21 16:15:00,33.1,16.9,29.90,South,175,1.0,4.0,51,0.00,,,0.00,Wunderground v.1.13,2013-01-21 21:15:00,
2013-01-21 16:25:00,33.4,16.3,29.89,South,178,2.0,5.0,49,0.00,,,0.00,Wunderground v.1.13,2013-01-21 21:25:00,
2013-01-21 16:30:00,33.4,16.3,29.89,SSE,159,1.0,1.0,49,0.00,,,0.00,Wunderground v.1.13,2013-01-21 21:30:00,
2013-01-21 16:40:00,33.4,15.8,29.88,SSE,159,0.0,6.0,48,0.00,,,0.00,Wunderground v.1.13,2013-01-21 21:40:00,
2013-01-21 16:45:00,33.4,16.3,29.89,SSE,159,0.0,6.0,49,0.00,,,0.00,Wunderground v.1.13,2013-01-21 21:45:00,
2013-01-21 16:55:00,33.5,15.9,29.88,SSE,159,1.0,3.0,48,0.00,,,0.00,Wunderground v.1.13,2013-01-21 21:55:00,
2013-01-21 17:00:00,33.5,15.9,29.88,SSE,159,0.0,3.0,48,0.00,,,0.00,Wunderground v.1.13,2013-01-21 22:00:00,
2013-01-21 17:10:00,33.7,16.5,29.89,SSE,159,0.0,2.0,49,0.00,,,0.00,Wunderground v.1.13,2013-01-21 22:10:00,
2013-01-21 17:15:00,33.7,16.5,29.88,SSE,159,0.0,2.0,49,0.00,,,0.00,Wunderground v.1.13,2013-01-21 22:15:00,
2013-01-21 17:25:00,34.0,18.2,29.88,SSE,161,0.0,2.0,52,0.00,,,0.00,Wunderground v.1.13,2013-01-21 22:25:00,
2013-01-21 17:35:00,34.1,18.3,29.88,SSE,161,0.0,3.0,52,0.00,,,0.00,Wunderground v.1.13,2013-01-21 22:35:00,
2013-01-21 17:40:00,34.1,17.8,29.88,SSE,162,0.0,3.0,51,0.00,,,0.00,Wunderground v.1.13,2013-01-21 22:40:00,
2013-01-21 17:45:00,34.1,17.8,29.88,SSE,161,0.0,3.0,51,0.00,,,0.00,Wunderground v.1.13,2013-01-21 22:45:00,
2013-01-21 17:55:00,34.1,17.8,29.88,SSE,162,0.0,1.0,51,0.00,,,0.00,Wunderground v.1.13,2013-01-21 22:55:00,
2013-01-21 18:00:00,34.1,17.8,29.88,SSE,162,0.0,1.0,51,0.00,,,0.00,Wunderground v.1.13,2013-01-21 23:00:00,
2013-01-21 18:10:00,34.0,16.8,29.88,NW,322,1.0,1.0,49,0.00,,,0.00,Wunderground v.1.13,2013-01-21 23:10:00,
2013-01-21 18:20:00,33.8,17.6,29.88,NW,322,1.0,1.0,51,0.00,,,0.00,Wunderground v.1.13,2013-01-21 23:20:00,
2013-01-21 18:25:00,33.8,17.1,29.88,NW,323,1.0,1.0,50,0.00,,,0.00,Wunderground v.1.13,2013-01-21 23:25:00,
2013-01-21 18:30:00,33.5,18.6,29.88,North,360,1.0,4.0,54,0.00,,,0.00,Wunderground v.1.13,2013-01-21 23:30:00,
2013-01-21 18:40:00,32.9,18.5,29.86,North,360,1.0,1.0,55,0.00,,,0.00,Wunderground v.1.13,2013-01-21 23:40:00,
2013-01-21 18:45:00,32.8,18.8,29.86,North,360,1.0,1.0,56,0.00,,,0.00,Wunderground v.1.13,2013-01-21 23:45:00,
2013-01-21 18:55:00,32.7,19.1,29.85,NNW,331,2.0,4.0,57,0.00,,,0.00,Wunderground v.1.13,2013-01-21 23:55:00,
2013-01-21 19:00:00,32.5,19.3,29.84,NE,53,2.0,2.0,58,0.00,,,0.00,Wunderground v.1.13,2013-01-22 00:00:00,
2013-01-21 19:10:00,32.5,19.3,29.84,NE,51,1.0,1.0,58,0.00,,,0.00,Wunderground v.1.13,2013-01-22 00:10:00,
2013-01-21 19:20:00,32.4,19.3,29.84,NW,315,3.0,5.0,58,0.00,,,0.00,Wunderground v.1.13,2013-01-22 00:20:00,
2013-01-21 19:25:00,32.2,19.9,29.85,NNW,327,4.0,6.0,60,0.00,,,0.00,Wunderground v.1.13,2013-01-22 00:25:00,
2013-01-21 19:30:00,32.1,20.2,29.85,NW,312,4.0,4.0,61,0.00,,,0.00,Wunderground v.1.13,2013-01-22 00:30:00,
2013-01-21 19:40:00,31.5,20.7,29.85,NE,51,3.0,3.0,64,0.00,,,0.00,Wunderground v.1.13,2013-01-22 00:40:00,
2013-01-21 19:50:00,30.9,21.9,29.86,NNE,32,3.0,8.0,69,0.00,,,0.00,Wunderground v.1.13,2013-01-22 00:50:00,
2013-01-21 20:00:00,29.8,23.2,29.86,NNW,330,5.0,8.0,76,0.00,,,0.00,Wunderground v.1.13,2013-01-22 01:00:00,
2013-01-21 20:05:00,29.1,24.0,29.87,NW,324,5.0,10.0,81,0.00,,,0.00,Wunderground v.1.13,2013-01-22 01:05:00,
2013-01-21 20:15:00,28.5,24.8,29.88,WNW,290,6.0,10.0,86,0.00,,,0.00,Wunderground v.1.13,2013-01-22 01:15:00,
2013-01-21 20:25:00,28.4,25.3,29.88,NW,311,5.0,5.0,88,0.00,,,0.00,Wunderground v.1.13,2013-01-22 01:25:00,
2013-01-21 20:30:00,28.4,25.3,29.88,NW,317,3.0,3.0,88,0.00,,,0.00,Wunderground v.1.13,2013-01-22 01:30:00,
2013-01-21 20:40:00,28.4,25.6,29.88,NW,318,1.0,11.0,89,0.00,,,0.00,Wunderground v.1.13,2013-01-22 01:40:00,
2013-01-21 20:50:00,28.4,25.6,29.87,WNW,289,3.0,9.0,89,0.00,,,0.00,Wunderground v.1.13,2013-01-22 01:50:00,
2013-01-21 21:00:00,28.1,25.3,29.88,North,5,4.0,9.0,89,0.00,,,0.00,Wunderground v.1.13,2013-01-22 02:00:00,
2013-01-21 21:10:00,27.9,25.3,29.88,NW,317,4.0,9.0,90,0.00,,,0.00,Wunderground v.1.13,2013-01-22 02:10:00,
2013-01-21 21:20:00,27.6,25.1,29.87,WNW,293,6.0,12.0,90,0.00,,,0.00,Wunderground v.1.13,2013-01-22 02:20:00,
2013-01-21 21:25:00,27.3,24.8,29.87,North,355,7.0,7.0,90,0.00,,,0.00,Wunderground v.1.13,2013-01-22 02:25:00,
2013-01-21 21:35:00,27.0,24.2,29.89,NW,315,4.0,4.0,89,0.00,,,0.00,Wunderground v.1.13,2013-01-22 02:35:00,
2013-01-21 21:40:00,26.9,24.1,29.88,NW,311,4.0,4.0,89,0.00,,,0.00,Wunderground v.1.13,2013-01-22 02:40:00,
2013-01-21 21:45:00,26.9,24.1,29.88,NNW,327,3.0,14.0,89,0.00,,,0.00,Wunderground v.1.13,2013-01-22 02:45:00,
2013-01-21 21:55:00,26.9,23.8,29.87,NW,319,3.0,3.0,88,0.00,,,0.00,Wunderground v.1.13,2013-01-22 02:55:00,
2013-01-21 22:05:00,26.9,23.8,29.87,NW,323,2.0,8.0,88,0.00,,,0.00,Wunderground v.1.13,2013-01-22 03:05:00,
2013-01-21 22:15:00,26.9,23.8,29.86,NW,318,2.0,8.0,88,0.00,,,0.00,Wunderground v.1.13,2013-01-22 03:15:00,
2013-01-21 22:25:00,26.9,23.5,29.86,NW,312,2.0,2.0,87,0.00,,,0.00,Wunderground v.1.13,2013-01-22 03:25:00,
2013-01-21 22:30:00,26.9,23.5,29.86,NW,312,2.0,7.0,87,0.00,,,0.00,Wunderground v.1.13,2013-01-22 03:30:00,
2013-01-21 22:40:00,26.7,23.4,29.86,NW,312,1.0,4.0,87,0.00,,,0.00,Wunderground v.1.13,2013-01-22 03:40:00,
2013-01-21 22:50:00,26.7,23.1,29.86,NW,311,1.0,5.0,86,0.00,,,0.00,Wunderground v.1.13,2013-01-22 03:50:00,
2013-01-21 23:00:00,26.7,23.1,29.86,NW,311,1.0,5.0,86,0.00,,,0.00,Wunderground v.1.13,2013-01-22 04:00:00,
2013-01-21 23:05:00,26.7,23.1,29.87,NW,311,1.0,1.0,86,0.00,,,0.00,Wunderground v.1.13,2013-01-22 04:05:00,
2013-01-21 23:15:00,26.6,22.7,29.86,West,268,1.0,5.0,85,0.00,,,0.00,Wunderground v.1.13,2013-01-22 04:15:00,
2013-01-21 23:25:00,26.4,21.9,29.86,NW,304,4.0,4.0,83,0.00,,,0.00,Wunderground v.1.13,2013-01-22 04:25:00,
2013-01-21 23:35:00,26.3,21.3,29.86,NW,306,2.0,10.0,81,0.00,,,0.00,Wunderground v.1.13,2013-01-22 04:35:00,
2013-01-21 23:45:00,26.0,21.0,29.86,WNW,298,3.0,10.0,81,0.00,,,0.00,Wunderground v.1.13,2013-01-22 04:45:00,
2013-01-21 23:55:00,25.7,20.1,29.86,NNW,329,4.0,7.0,79,0.00,,,0.00,Wunderground v.1.13,2013-01-22 04:55:00,